Time;durP1;ratioP1;P1;durP2;ratioP2;P2;SDS_P1;SDS_P2;PMS_P1;PMS_P2;Temp;Humidity;BMP_temperature;BMP_pressure;BME280_temperature;BME280_humidity;BME280_pressure;Samples;Min_cycle;Max_cycle;Signal;HPM_P1;HPM_P2
2022/09/22 00:01:03;;;;;;;5.25;1.50;;;8.80;99.90;;;;;;4903587;29;20083;-85
2022/09/22 00:03:34;;;;;;;5.07;1.60;;;8.80;99.90;;;;;;4903355;29;20131;-85
2022/09/22 00:06:02;;;;;;;4.05;1.40;;;8.70;99.90;;;;;;4903526;29;20051;-85
2022/09/22 00:08:31;;;;;;;3.65;1.13;;;8.80;99.90;;;;;;4903646;29;20127;-85
2022/09/22 00:11:07;;;;;;;4.85;1.73;;;8.80;99.90;;;;;;4903435;29;20547;-85
2022/09/22 00:13:34;;;;;;;6.35;1.60;;;8.80;99.90;;;;;;4920079;29;20052;-85
2022/09/22 00:16:00;;;;;;;3.33;1.75;;;8.70;99.90;;;;;;4903192;29;20051;-86
2022/09/22 00:18:27;;;;;;;3.22;1.70;;;8.70;99.90;;;;;;4903000;29;20107;-86
2022/09/22 00:20:54;;;;;;;3.67;1.70;;;8.70;99.90;;;;;;4902931;29;20055;-87
2022/09/22 00:23:23;;;;;;;8.05;2.80;;;8.70;99.90;;;;;;4902932;29;20048;-86
2022/09/22 00:25:49;;;;;;;7.88;2.75;;;8.70;99.90;;;;;;4903243;29;20048;-86
2022/09/22 00:28:15;;;;;;;5.97;2.20;;;8.70;99.90;;;;;;4902703;29;20070;-86
2022/09/22 00:30:41;;;;;;;3.95;1.70;;;8.70;99.90;;;;;;4902708;29;20056;-85
2022/09/22 00:33:08;;;;;;;7.55;3.10;;;8.70;99.90;;;;;;4902178;29;20060;-85
2022/09/22 00:35:37;;;;;;;6.57;2.63;;;8.70;99.90;;;;;;4919657;29;20485;-85
2022/09/22 00:38:04;;;;;;;4.40;2.17;;;8.70;99.90;;;;;;4902756;29;20044;-88
2022/09/22 00:40:34;;;;;;;4.70;2.58;;;8.60;99.90;;;;;;4902818;29;20045;-86
2022/09/22 00:43:21;;;;;;;5.80;2.85;;;8.60;99.90;;;;;;4902655;29;20048;-86
2022/09/22 00:46:08;;;;;;;5.40;3.05;;;8.70;99.90;;;;;;4902768;29;20070;-87
2022/09/22 00:48:38;;;;;;;6.63;3.42;;;8.70;99.90;;;;;;4902633;29;20484;-87
2022/09/22 00:51:10;;;;;;;6.13;3.60;;;8.70;99.90;;;;;;4902592;29;20134;-88
2022/09/22 00:53:36;;;;;;;8.35;4.20;;;8.70;99.90;;;;;;4902542;29;20473;-88
2022/09/22 00:56:07;;;;;;;7.30;4.25;;;8.80;99.90;;;;;;4902568;29;20048;-87
2022/09/22 00:58:36;;;;;;;7.57;4.10;;;8.80;99.90;;;;;;4919322;29;20048;-88
2022/09/22 01:01:03;;;;;;;11.15;5.15;;;8.80;99.90;;;;;;4902255;29;20499;-87
2022/09/22 01:03:29;;;;;;;10.15;5.90;;;8.80;99.90;;;;;;4902142;29;20040;-87
2022/09/22 01:05:57;;;;;;;10.30;5.82;;;8.80;99.90;;;;;;4902018;29;20060;-87
2022/09/22 01:08:24;;;;;;;9.80;5.68;;;8.80;99.90;;;;;;4902092;29;20052;-87
2022/09/22 01:10:52;;;;;;;8.65;5.60;;;8.80;99.90;;;;;;4919111;29;20052;-87
2022/09/22 01:13:35;;;;;;;7.68;5.10;;;8.80;99.90;;;;;;4902036;29;20063;-87
2022/09/22 01:16:19;;;;;;;9.13;6.18;;;8.80;99.90;;;;;;4902318;29;20048;-87
2022/09/22 01:19:22;;;;;;;12.63;7.70;;;8.80;99.90;;;;;;4919013;29;20119;-87
2022/09/22 01:22:08;;;;;;;9.25;6.50;;;8.90;99.90;;;;;;4902223;29;20072;-86
2022/09/22 01:24:50;;;;;;;13.85;7.20;;;8.80;99.90;;;;;;4918593;29;20531;-86
2022/09/22 01:27:39;;;;;;;14.68;7.95;;;8.90;99.90;;;;;;4901742;29;20076;-87
2022/09/22 01:30:21;;;;;;;14.05;9.25;;;8.90;99.90;;;;;;4901868;29;20119;-87
2022/09/22 01:33:00;;;;;;;16.88;10.07;;;8.90;99.90;;;;;;4918651;29;20127;-86
2022/09/22 01:35:32;;;;;;;18.30;9.38;;;9.00;99.90;;;;;;4901843;29;20139;-87
2022/09/22 01:38:32;;;;;;;13.43;9.13;;;9.00;99.90;;;;;;4901603;29;20086;-86
2022/09/22 01:41:05;;;;;;;13.95;8.48;;;9.00;99.90;;;;;;4901561;29;20060;-87
2022/09/22 01:43:55;;;;;;;16.55;9.65;;;9.00;99.90;;;;;;4900618;29;20476;-87
2022/09/22 01:46:29;;;;;;;15.65;9.60;;;8.90;99.90;;;;;;4901696;29;20056;-87
2022/09/22 01:48:59;;;;;;;12.38;9.65;;;8.90;99.90;;;;;;4901968;29;20040;-87
2022/09/22 01:51:37;;;;;;;17.15;10.32;;;9.00;99.90;;;;;;4901529;29;20058;-87
2022/09/22 01:54:13;;;;;;;14.82;9.70;;;8.90;99.90;;;;;;4901534;29;20130;-88
2022/09/22 01:56:42;;;;;;;13.20;9.73;;;8.90;99.90;;;;;;4901482;29;20443;-86
2022/09/22 01:59:10;;;;;;;15.25;10.23;;;8.90;99.90;;;;;;4901497;29;20079;-86
2022/09/22 02:02:05;;;;;;;12.77;10.23;;;8.90;99.90;;;;;;4918158;29;20040;-86
2022/09/22 02:04:38;;;;;;;14.48;10.75;;;8.80;99.90;;;;;;4894395;29;20119;-86
2022/09/22 02:07:06;;;;;;;;;;;8.80;99.90;;;;;;4918431;29;20480;-86
2022/09/22 02:09:34;;;;;;;12.43;9.25;;;8.80;99.90;;;;;;4901312;29;19969;-87
2022/09/22 02:12:00;;;;;;;15.23;10.80;;;8.70;99.90;;;;;;4917990;29;20040;-87
2022/09/22 02:14:27;;;;;;;17.20;10.75;;;8.80;99.90;;;;;;4901075;29;20086;-86
2022/09/22 02:16:59;;;;;;;13.68;10.10;;;8.70;99.90;;;;;;4900848;29;20096;-86
2022/09/22 02:19:39;;;;;;;12.77;10.07;;;8.70;99.90;;;;;;4900846;29;20396;-85
2022/09/22 02:22:07;;;;;;;14.60;10.80;;;8.70;99.90;;;;;;4901135;29;20048;-86
2022/09/22 02:24:34;;;;;;;13.63;10.05;;;8.70;99.90;;;;;;4917459;29;20523;-86
2022/09/22 02:27:25;;;;;;;14.75;10.07;;;8.70;99.90;;;;;;4917743;29;20048;-86
2022/09/22 02:30:05;;;;;;;13.27;10.77;;;8.70;99.90;;;;;;4900665;29;20083;-86
2022/09/22 02:32:34;;;;;;;12.98;9.73;;;8.70;99.90;;;;;;4900740;29;20052;-86
2022/09/22 02:35:00;;;;;;;14.98;9.27;;;8.60;99.90;;;;;;4917571;29;20052;-86
2022/09/22 02:37:35;;;;;;;14.40;10.63;;;8.60;99.90;;;;;;4900665;29;20063;-86
2022/09/22 02:40:38;;;;;;;13.13;9.90;;;8.60;99.90;;;;;;4900834;29;20056;-86
2022/09/22 02:43:30;;;;;;;14.25;9.25;;;8.60;99.90;;;;;;4900552;29;20052;-85
2022/09/22 02:46:06;;;;;;;15.52;10.10;;;8.50;99.90;;;;;;4900707;29;20056;-85
2022/09/22 02:48:40;;;;;;;14.13;10.15;;;8.40;99.90;;;;;;4900728;29;20059;-85
2022/09/22 02:51:06;;;;;;;13.00;9.65;;;8.40;99.90;;;;;;4900522;29;20052;-85
2022/09/22 02:53:34;;;;;;;14.38;10.07;;;8.40;99.90;;;;;;4900291;29;20044;-85
2022/09/22 02:56:00;;;;;;;15.02;9.52;;;8.40;99.90;;;;;;4900244;29;20063;-85
2022/09/22 02:58:26;;;;;;;11.68;10.00;;;8.40;99.90;;;;;;4900501;29;20047;-86
2022/09/22 03:00:52;;;;;;;13.15;9.07;;;8.30;99.90;;;;;;4900622;29;20560;-86
2022/09/22 03:03:17;;;;;;;10.85;8.95;;;8.30;99.90;;;;;;4917075;29;20052;-86
2022/09/22 03:05:43;;;;;;;10.82;8.13;;;8.20;99.90;;;;;;4900379;29;20052;-86
2022/09/22 03:08:09;;;;;;;11.27;8.43;;;8.10;99.90;;;;;;4900598;29;20080;-86
2022/09/22 03:10:34;;;;;;;12.65;8.93;;;8.10;99.90;;;;;;4900463;29;20048;-86
2022/09/22 03:13:00;;;;;;;10.63;9.05;;;8.10;99.90;;;;;;4900385;29;20071;-87
2022/09/22 03:15:26;;;;;;;11.65;8.43;;;8.00;99.90;;;;;;4917159;29;20152;-85
2022/09/22 03:17:52;;;;;;;10.57;8.32;;;8.00;99.90;;;;;;4900190;29;20505;-86
2022/09/22 03:20:17;;;;;;;11.10;7.88;;;8.00;99.90;;;;;;4900268;29;20080;-85
2022/09/22 03:22:43;;;;;;;10.50;8.00;;;8.00;99.90;;;;;;4900254;29;20135;-85
2022/09/22 03:25:10;;;;;;;10.95;8.40;;;8.00;99.90;;;;;;4899886;29;20091;-85
2022/09/22 03:27:36;;;;;;;11.10;7.90;;;7.90;99.90;;;;;;4900075;29;20059;-87
2022/09/22 03:30:03;;;;;;;10.43;7.90;;;7.90;99.90;;;;;;4900151;29;20384;-86
2022/09/22 03:32:30;;;;;;;12.07;7.88;;;7.90;99.90;;;;;;4900152;29;20055;-87
2022/09/22 03:34:56;;;;;;;11.45;8.00;;;7.90;99.90;;;;;;4900345;29;20067;-86
2022/09/22 03:37:22;;;;;;;10.00;7.35;;;7.90;99.90;;;;;;4900241;29;20056;-86
2022/09/22 03:39:48;;;;;;;10.20;7.93;;;7.90;99.90;;;;;;4900207;29;20504;-86
2022/09/22 03:42:13;;;;;;;8.82;7.25;;;7.80;99.90;;;;;;4900251;29;20056;-86
2022/09/22 03:44:39;;;;;;;9.98;7.30;;;7.80;99.90;;;;;;4899952;29;20044;-86
2022/09/22 03:47:05;;;;;;;9.20;7.00;;;7.70;99.90;;;;;;4900312;29;20048;-87
2022/09/22 03:49:30;;;;;;;10.13;7.28;;;7.70;99.90;;;;;;4900329;29;20497;-86
2022/09/22 03:51:56;;;;;;;10.18;7.22;;;7.70;99.90;;;;;;4899956;29;20098;-86
2022/09/22 03:54:22;;;;;;;9.68;7.53;;;7.70;99.90;;;;;;4916817;29;20135;-86
2022/09/22 03:56:48;;;;;;;9.23;6.78;;;7.70;99.90;;;;;;4917171;29;20052;-86
2022/09/22 03:59:14;;;;;;;7.82;6.25;;;7.70;99.90;;;;;;4899923;29;20058;-87
2022/09/22 04:01:40;;;;;;;12.18;6.82;;;7.80;99.90;;;;;;4900024;29;20044;-86
2022/09/22 04:04:05;;;;;;;9.95;6.90;;;7.80;99.90;;;;;;4899785;29;20511;-87
2022/09/22 04:06:32;;;;;;;10.73;7.15;;;7.70;99.90;;;;;;4899983;29;20044;-86
2022/09/22 04:08:57;;;;;;;10.23;6.68;;;7.70;99.90;;;;;;4920067;29;20116;-86
2022/09/22 04:11:23;;;;;;;9.60;6.90;;;7.60;99.90;;;;;;4903099;29;20433;-86
2022/09/22 04:13:49;;;;;;;10.32;6.50;;;7.60;99.90;;;;;;4902908;29;20071;-86
2022/09/22 04:16:15;;;;;;;8.10;6.57;;;7.50;99.90;;;;;;4903297;29;20040;-86
2022/09/22 04:18:41;;;;;;;8.88;6.07;;;7.60;99.90;;;;;;4903040;29;20052;-87
2022/09/22 04:21:07;;;;;;;9.50;6.50;;;7.50;99.90;;;;;;4903416;29;20040;-87
2022/09/22 04:23:33;;;;;;;10.35;6.30;;;7.50;99.90;;;;;;4902951;29;20408;-87
2022/09/22 04:26:00;;;;;;;9.13;6.68;;;7.50;99.90;;;;;;4902727;29;20420;-87
2022/09/22 04:28:27;;;;;;;10.02;6.43;;;7.50;99.90;;;;;;4903080;29;20063;-87
2022/09/22 04:30:53;;;;;;;7.65;5.60;;;7.50;99.90;;;;;;4902866;29;20076;-86
2022/09/22 04:33:18;;;;;;;9.93;5.60;;;7.50;99.90;;;;;;4903137;29;20052;-86
2022/09/22 04:35:48;;;;;;;8.15;6.00;;;7.50;99.90;;;;;;4902931;29;20062;-86
2022/09/22 04:38:14;;;;;;;9.30;5.78;;;7.40;99.90;;;;;;4902561;29;20135;-86
2022/09/22 04:40:40;;;;;;;10.20;7.40;;;7.40;99.90;;;;;;4902827;29;20179;-86
2022/09/22 04:43:05;;;;;;;9.32;6.80;;;7.50;99.90;;;;;;4902494;29;20046;-86
2022/09/22 04:45:31;;;;;;;9.95;6.18;;;7.50;99.90;;;;;;4902592;29;20047;-86
2022/09/22 04:47:57;;;;;;;8.00;6.03;;;7.50;99.90;;;;;;4902725;29;20040;-86
2022/09/22 04:50:23;;;;;;;9.57;5.80;;;7.50;99.90;;;;;;4902534;29;20121;-85
2022/09/22 04:52:54;;;;;;;8.55;6.10;;;7.40;99.90;;;;;;4902278;29;20052;-86
2022/09/22 04:55:21;;;;;;;8.70;6.00;;;7.50;99.90;;;;;;4902934;29;20160;-86
2022/09/22 04:57:48;;;;;;;8.90;5.55;;;7.40;99.90;;;;;;4919354;29;20040;-85
2022/09/22 05:00:14;;;;;;;8.15;5.75;;;7.40;99.90;;;;;;4902576;29;20139;-85
2022/09/22 05:02:40;;;;;;;8.43;6.30;;;7.40;99.90;;;;;;4902607;29;20064;-85
2022/09/22 05:05:07;;;;;;;9.85;5.20;;;7.40;99.90;;;;;;4901988;29;20052;-86
2022/09/22 05:07:33;;;;;;;9.18;6.60;;;7.40;99.90;;;;;;4902183;29;20063;-86
2022/09/22 05:09:59;;;;;;;6.38;4.97;;;7.30;99.90;;;;;;4918975;29;20043;-85
2022/09/22 05:12:25;;;;;;;8.20;5.13;;;7.30;99.90;;;;;;4901620;29;20103;-86
2022/09/22 05:14:51;;;;;;;9.85;5.43;;;7.30;99.90;;;;;;4901224;29;20134;-86
2022/09/22 05:17:17;;;;;;;9.20;5.20;;;7.30;99.90;;;;;;4918609;29;20540;-86
2022/09/22 05:19:44;;;;;;;7.75;5.32;;;7.30;99.90;;;;;;4918819;29;20048;-86
2022/09/22 05:22:09;;;;;;;10.52;5.07;;;7.30;99.90;;;;;;4902006;29;20057;-85
2022/09/22 05:24:35;;;;;;;8.75;5.47;;;7.30;99.90;;;;;;4901558;29;20408;-86
2022/09/22 05:27:01;;;;;;;9.95;7.07;;;7.20;99.90;;;;;;4901585;29;20040;-85
2022/09/22 05:29:26;;;;;;;7.05;5.25;;;7.20;99.90;;;;;;4901979;29;20052;-85
2022/09/22 05:31:52;;;;;;;7.70;5.20;;;7.30;99.90;;;;;;4918191;29;20551;-86
2022/09/22 05:34:21;;;;;;;9.57;5.13;;;7.20;99.90;;;;;;4901790;29;20056;-86
2022/09/22 05:36:46;;;;;;;8.65;5.53;;;7.20;99.90;;;;;;4901749;29;20130;-89
2022/09/22 05:39:12;;;;;;;7.55;5.15;;;7.30;99.90;;;;;;4901702;29;20544;-86
2022/09/22 05:41:38;;;;;;;8.82;5.15;;;7.30;99.90;;;;;;4901620;29;20068;-85
2022/09/22 05:44:04;;;;;;;9.88;5.93;;;7.30;99.90;;;;;;4918586;29;20044;-83
2022/09/22 05:46:29;;;;;;;8.57;5.47;;;7.30;99.90;;;;;;4901500;29;20499;-86
2022/09/22 05:48:55;;;;;;;9.90;5.57;;;7.30;99.90;;;;;;4901526;29;20052;-89
2022/09/22 05:51:21;;;;;;;7.43;4.90;;;7.30;99.90;;;;;;4901233;29;20404;-89
2022/09/22 05:53:46;;;;;;;8.38;5.80;;;7.40;99.90;;;;;;4901386;29;20051;-90
2022/09/22 05:56:12;;;;;;;13.07;5.40;;;7.40;99.90;;;;;;4918280;29;20036;-89
2022/09/22 05:58:37;;;;;;;7.80;5.03;;;7.40;99.90;;;;;;4901332;29;20052;-89
2022/09/22 06:01:03;;;;;;;8.05;6.13;;;7.50;99.90;;;;;;4901203;29;20044;-89
2022/09/22 06:03:29;;;;;;;10.60;5.68;;;7.50;99.90;;;;;;4901161;29;20440;-88
2022/09/22 06:05:55;;;;;;;8.07;5.65;;;7.70;99.90;;;;;;4901171;29;20059;-87
2022/09/22 06:08:20;;;;;;;7.68;5.93;;;7.80;99.90;;;;;;4900785;29;20180;-89
2022/09/22 06:10:50;;;;;;;8.80;6.47;;;7.80;99.90;;;;;;4917953;29;20123;-87
2022/09/22 06:13:16;;;;;;;9.43;5.97;;;7.90;99.90;;;;;;4900985;29;20400;-88
2022/09/22 06:15:48;;;;;;;9.05;6.00;;;8.00;99.90;;;;;;4899996;29;20098;-87
2022/09/22 06:18:16;;;;;;;9.18;5.93;;;8.10;99.90;;;;;;4889895;29;20044;-89
2022/09/22 06:20:43;;;;;;;7.55;5.80;;;8.20;99.90;;;;;;4882160;29;20056;-88
2022/09/22 06:23:11;;;;;;;9.95;6.10;;;8.40;99.90;;;;;;4881841;29;20055;-85
2022/09/22 06:25:37;;;;;;;10.30;6.25;;;8.50;99.90;;;;;;4882233;29;20060;-90
2022/09/22 06:28:05;;;;;;;10.05;6.20;;;8.60;99.90;;;;;;4882112;29;20059;-88
2022/09/22 06:30:33;;;;;;;11.60;5.95;;;8.70;99.90;;;;;;4878356;29;20421;-90
2022/09/22 06:32:58;;;;;;;8.60;6.10;;;8.80;99.90;;;;;;4878828;29;20080;-83
2022/09/22 06:35:24;;;;;;;8.55;5.80;;;8.90;99.90;;;;;;4878618;29;20132;-89
2022/09/22 06:37:57;;;;;;;10.82;5.78;;;9.00;99.90;;;;;;4879020;29;20097;-90
2022/09/22 06:40:24;;;;;;;8.15;5.28;;;9.10;99.90;;;;;;4879087;29;20045;-88
2022/09/22 06:42:55;;;;;;;10.38;5.68;;;9.20;99.90;;;;;;4880008;29;20128;-87
2022/09/22 06:45:21;;;;;;;8.40;5.70;;;9.30;99.90;;;;;;4878517;29;20667;-86
2022/09/22 06:47:47;;;;;;;9.57;5.68;;;9.40;99.90;;;;;;4879997;29;20136;-86
2022/09/22 06:50:12;;;;;;;8.13;5.20;;;9.50;99.90;;;;;;4878788;29;20064;-86
2022/09/22 06:52:38;;;;;;;10.60;5.40;;;9.60;99.90;;;;;;4879935;29;20437;-86
2022/09/22 06:55:04;;;;;;;9.35;6.05;;;9.70;99.90;;;;;;4879689;29;20076;-86
2022/09/22 06:57:31;;;;;;;8.25;5.38;;;9.80;99.90;;;;;;4878568;29;20401;-86
2022/09/22 07:00:01;;;;;;;9.27;5.57;;;9.80;99.90;;;;;;4878380;29;20049;-86
2022/09/22 07:02:28;;;;;;;9.68;5.40;;;10.00;99.90;;;;;;4879551;29;20517;-85
2022/09/22 07:04:57;;;;;;;11.27;6.07;;;10.00;99.90;;;;;;4878255;29;20550;-86
2022/09/22 07:07:27;;;;;;;7.68;5.88;;;10.10;99.90;;;;;;4879822;29;20053;-85
2022/09/22 07:09:53;;;;;;;8.88;5.68;;;10.20;99.90;;;;;;4879783;29;20060;-85
2022/09/22 07:12:24;;;;;;;8.57;5.53;;;10.30;99.90;;;;;;4878296;29;20186;-85
2022/09/22 07:14:51;;;;;;;9.68;5.78;;;10.40;99.90;;;;;;4878730;29;20089;-85
2022/09/22 07:17:19;;;;;;;11.43;6.28;;;10.50;99.90;;;;;;4878599;29;20057;-86
2022/09/22 07:19:49;;;;;;;7.72;4.80;;;10.50;99.90;;;;;;4878513;29;20132;-85
2022/09/22 07:22:18;;;;;;;8.82;5.40;;;10.60;99.90;;;;;;4878537;29;20492;-85
2022/09/22 07:24:44;;;;;;;7.70;5.30;;;10.70;99.90;;;;;;4878291;29;20485;-85
2022/09/22 07:27:11;;;;;;;8.18;5.13;;;10.80;99.90;;;;;;4878133;29;20037;-86
2022/09/22 07:29:37;;;;;;;9.77;5.60;;;10.90;99.90;;;;;;4878199;29;20140;-86
2022/09/22 07:32:03;;;;;;;7.43;5.20;;;11.00;99.90;;;;;;4894925;29;20135;-85
2022/09/22 07:34:29;;;;;;;8.63;5.28;;;11.10;99.90;;;;;;4881513;29;20403;-86
2022/09/22 07:36:55;;;;;;;7.30;4.63;;;11.20;99.90;;;;;;4897980;29;20528;-86
2022/09/22 07:39:23;;;;;;;10.13;5.53;;;11.20;99.90;;;;;;4898028;29;20060;-86
2022/09/22 07:41:50;;;;;;;9.45;4.72;;;11.40;99.90;;;;;;4898419;29;20048;-86
2022/09/22 07:47:02;;;;;;;7.60;4.53;;;11.50;99.90;;;;;;4884618;29;20052;-86
2022/09/22 07:49:28;;;;;;;7.82;4.50;;;11.70;99.90;;;;;;4884422;29;20116;-85
2022/09/22 07:51:54;;;;;;;7.18;4.22;;;11.80;99.90;;;;;;4901646;29;20100;-85
2022/09/22 07:54:24;;;;;;;8.15;4.28;;;11.80;99.90;;;;;;4884496;29;20048;-85
2022/09/22 07:56:54;;;;;;;8.30;4.53;;;12.00;99.90;;;;;;4884815;29;20067;-86
2022/09/22 07:59:19;;;;;;;6.05;3.38;;;12.10;99.90;;;;;;4901315;29;20060;-85
2022/09/22 08:01:49;;;;;;;5.13;3.35;;;12.20;99.90;;;;;;4884503;29;20059;-86
2022/09/22 08:04:22;;;;;;;5.43;3.35;;;12.20;99.90;;;;;;4884222;29;20052;-85
2022/09/22 08:06:51;;;;;;;;;;;12.40;99.90;;;;;;4884976;29;20084;-85
2022/09/22 08:09:17;;;;;;;8.98;3.65;;;12.50;99.90;;;;;;4884249;29;19923;-85
2022/09/22 08:11:47;;;;;;;7.47;3.42;;;12.60;99.90;;;;;;4884311;29;20087;-86
2022/09/22 08:14:15;;;;;;;7.45;3.42;;;12.70;99.90;;;;;;4884190;29;20076;-86
2022/09/22 08:16:41;;;;;;;5.35;3.45;;;12.80;99.90;;;;;;4884046;29;20056;-86
2022/09/22 08:19:12;;;;;;;5.63;3.13;;;12.90;99.90;;;;;;4900950;29;20053;-86
2022/09/22 08:21:39;;;;;;;5.10;3.28;;;13.00;99.90;;;;;;4901137;29;20059;-85
2022/09/22 08:24:08;;;;;;;6.28;3.63;;;13.10;99.90;;;;;;4900861;29;20044;-85
2022/09/22 08:26:37;;;;;;;6.35;3.20;;;13.20;99.90;;;;;;4884159;29;20049;-85
2022/09/22 08:29:07;;;;;;;7.93;3.28;;;13.30;99.90;;;;;;4883850;29;20063;-86
2022/09/22 08:31:34;;;;;;;6.78;3.10;;;13.50;99.90;;;;;;4883839;29;20056;-85
2022/09/22 08:34:00;;;;;;;6.95;2.78;;;13.60;99.90;;;;;;4883864;29;20049;-84
2022/09/22 08:36:32;;;;;;;5.82;3.22;;;13.70;99.90;;;;;;4883851;29;20045;-84
2022/09/22 08:38:59;;;;;;;6.00;2.65;;;13.90;99.90;;;;;;4883977;29;20044;-85
2022/09/22 08:41:28;;;;;;;5.78;2.55;;;14.00;99.90;;;;;;4883673;29;20404;-84
2022/09/22 08:44:00;;;;;;;4.38;2.90;;;14.10;99.90;;;;;;4883602;29;20413;-84
2022/09/22 08:46:26;;;;;;;6.63;2.90;;;14.20;99.90;;;;;;4883685;29;20058;-84
2022/09/22 08:51:52;;;;;;;8.68;3.00;;;14.40;99.90;;;;;;4900424;29;20176;-83
2022/09/22 08:54:28;;;;;;;6.10;2.70;;;14.50;99.90;;;;;;4883521;29;20056;-84
2022/09/22 08:57:18;;;;;;;6.40;2.47;;;14.60;99.90;;;;;;4883667;29;20052;-85
2022/09/22 09:00:04;;;;;;;7.38;2.95;;;14.60;99.90;;;;;;4883776;29;20071;-84
2022/09/22 09:02:37;;;;;;;7.15;2.60;;;14.80;99.90;;;;;;4883640;29;20497;-84
2022/09/22 09:05:20;;;;;;;4.93;2.38;;;14.90;99.90;;;;;;4883256;29;20169;-84
2022/09/22 09:08:14;;;;;;;4.82;2.40;;;15.10;99.90;;;;;;4883221;29;20055;-84
2022/09/22 09:10:57;;;;;;;5.20;2.08;;;15.20;99.90;;;;;;4883236;29;20088;-83
2022/09/22 09:14:00;;;;;;;4.50;2.38;;;15.40;99.90;;;;;;4883315;29;20051;-84
2022/09/22 09:16:51;;;;;;;9.03;2.70;;;15.40;99.90;;;;;;4883569;29;20064;-85
2022/09/22 09:19:32;;;;;;;3.80;1.98;;;15.60;99.90;;;;;;4883196;29;20052;-84
2022/09/22 09:22:10;;;;;;;3.83;1.90;;;15.60;99.90;;;;;;4900196;29;20052;-84
2022/09/22 09:24:41;;;;;;;3.42;1.50;;;15.70;99.90;;;;;;4900079;29;20063;-83
2022/09/22 09:27:13;;;;;;;3.30;1.52;;;15.80;99.90;;;;;;4899906;29;20400;-84
2022/09/22 09:29:49;;;;;;;3.88;1.90;;;16.00;99.90;;;;;;4882882;29;20041;-85
2022/09/22 09:35:50;;;;;;;4.10;2.03;;;16.20;99.90;;;;;;4899778;29;20048;-84
2022/09/22 09:38:30;;;;;;;5.57;1.70;;;16.30;99.90;;;;;;4882798;29;20059;-84
2022/09/22 09:41:30;;;;;;;6.45;2.53;;;16.40;99.90;;;;;;4883029;29;20544;-84
2022/09/22 09:43:57;;;;;;;3.60;1.65;;;16.50;99.90;;;;;;4882789;29;20116;-84
2022/09/22 09:47:01;;;;;;;5.80;1.50;;;16.60;99.90;;;;;;4882942;29;20468;-84
2022/09/22 09:49:27;;;;;;;6.47;1.70;;;16.70;99.90;;;;;;4882843;29;20048;-84
2022/09/22 09:52:01;;;;;;;4.20;1.35;;;16.80;99.90;;;;;;4899316;29;20151;-85
2022/09/22 09:55:06;;;;;;;5.82;1.75;;;16.70;99.90;;;;;;4882504;29;20066;-84
2022/09/22 09:58:02;;;;;;;6.95;2.00;;;16.90;99.90;;;;;;4882582;29;20107;-83
2022/09/22 10:00:30;;;;;;;7.10;2.08;;;16.90;99.90;;;;;;4882840;29;20049;-84
2022/09/22 10:03:03;;;;;;;6.15;1.98;;;16.90;99.90;;;;;;4882057;29;20565;-84
2022/09/22 10:05:37;;;;;;;4.50;1.75;;;17.00;99.90;;;;;;4898672;29;20056;-85
2022/09/22 10:08:18;;;;;;;6.57;1.90;;;17.10;99.90;;;;;;4882351;29;20044;-85
2022/09/22 10:10:45;;;;;;;5.10;1.77;;;17.10;99.90;;;;;;4882278;29;20433;-85
2022/09/22 10:13:11;;;;;;;5.72;1.88;;;17.20;99.90;;;;;;4882402;29;20070;-85
2022/09/22 10:15:59;;;;;;;6.32;1.92;;;17.30;99.90;;;;;;4899187;29;20398;-84
2022/09/22 10:18:25;;;;;;;5.15;1.48;;;17.40;99.90;;;;;;4882061;29;20057;-85
2022/09/22 10:21:16;;;;;;;4.88;1.45;;;17.50;99.90;;;;;;4881980;29;20040;-84
2022/09/22 10:24:11;;;;;;;6.25;1.75;;;17.60;99.90;;;;;;4882075;29;20397;-84
2022/09/22 10:26:54;;;;;;;3.40;1.20;;;17.70;99.90;;;;;;4898969;29;20084;-85
2022/09/22 10:29:24;;;;;;;5.00;1.60;;;17.70;99.90;;;;;;4898705;29;20095;-85
2022/09/22 10:32:01;;;;;;;6.22;1.90;;;17.90;99.90;;;;;;4881466;29;20543;-85
2022/09/22 10:34:31;;;;;;;4.35;1.40;;;17.90;99.90;;;;;;5308262;23;20048;-83
2022/09/22 10:37:02;;;;;;;4.65;2.10;;;18.00;99.90;;;;;;4898578;29;20044;-85
2022/09/22 10:39:56;;;;;;;3.15;1.10;;;18.20;99.90;;;;;;4898915;29;20052;-85
2022/09/22 10:42:35;;;;;;;2.60;1.30;;;18.30;99.90;;;;;;4898824;29;20049;-84
2022/09/22 10:45:08;;;;;;;4.78;1.23;;;18.30;99.90;;;;;;4897131;29;20511;-85
2022/09/22 10:47:56;;;;;;;5.50;1.25;;;18.40;99.90;;;;;;4897631;29;20107;-85
2022/09/22 10:50:44;;;;;;;3.80;1.15;;;18.40;99.90;;;;;;4898572;29;20131;-85
2022/09/22 10:53:26;;;;;;;6.50;1.35;;;18.50;99.90;;;;;;4898367;29;20481;-85
2022/09/22 10:56:04;;;;;;;3.38;1.42;;;18.50;99.90;;;;;;4898413;29;20409;-85
2022/09/22 10:58:41;;;;;;;3.70;1.50;;;18.60;99.90;;;;;;4897374;29;20048;-85
2022/09/22 11:01:38;;;;;;;8.48;2.08;;;18.70;99.90;;;;;;4897291;29;20049;-85
2022/09/22 11:04:45;;;;;;;4.65;1.55;;;18.60;99.90;;;;;;4897701;29;20048;-86
2022/09/22 11:13:40;;;;;;;4.70;2.00;;;18.70;99.90;;;;;;4897754;29;20444;-86
2022/09/22 11:16:33;;;;;;;4.50;1.73;;;18.70;99.90;;;;;;4899472;29;20481;-86
2022/09/22 11:19:07;;;;;;;;;;;18.70;99.90;;;;;;4892842;29;20081;-87
2022/09/22 11:21:56;;;;;;;4.07;1.92;;;18.80;99.90;;;;;;4902200;29;20018;-87
2022/09/22 11:24:46;;;;;;;6.30;2.70;;;18.80;99.90;;;;;;4901723;29;20382;-86
2022/09/22 11:27:35;;;;;;;8.27;2.50;;;18.90;99.80;;;;;;4901842;29;20396;-86
2022/09/22 11:30:20;;;;;;;6.40;3.00;;;19.00;99.90;;;;;;4901862;29;20059;-87
2022/09/22 11:33:23;;;;;;;6.28;3.22;;;18.90;99.80;;;;;;4901426;29;20131;-88
2022/09/22 11:35:55;;;;;;;6.65;2.80;;;18.90;98.60;;;;;;4901457;29;20092;-86
2022/09/22 11:38:48;;;;;;;7.07;2.93;;;18.90;99.90;;;;;;4901563;29;20143;-86
2022/09/22 11:41:40;;;;;;;6.43;3.28;;;18.90;99.50;;;;;;4967800;23;20059;-85
2022/09/22 11:44:08;;;;;;;7.78;3.53;;;19.00;99.90;;;;;;4919973;29;20059;-88
2022/09/22 11:47:00;;;;;;;6.35;3.03;;;19.00;99.90;;;;;;4919878;29;20044;-86
2022/09/22 11:50:07;;;;;;;6.30;3.08;;;19.00;99.80;;;;;;4919421;29;20131;-87
2022/09/22 11:52:42;;;;;;;7.03;3.25;;;19.00;99.90;;;;;;4899272;29;20056;-87
2022/09/22 11:55:35;;;;;;;5.88;3.05;;;19.00;99.90;;;;;;4919577;29;20071;-86
2022/09/22 11:58:08;;;;;;;4.95;3.60;;;19.10;99.90;;;;;;4920868;29;20080;-87
2022/09/22 12:00:40;;;;;;;6.40;3.03;;;19.20;99.70;;;;;;4920741;29;20044;-86
2022/09/22 12:03:15;;;;;;;6.57;3.75;;;19.20;99.90;;;;;;4920719;29;20044;-87
2022/09/22 12:05:53;;;;;;;9.13;3.80;;;19.20;99.90;;;;;;4918733;29;20084;-86
2022/09/22 12:08:24;;;;;;;6.97;4.10;;;19.10;99.40;;;;;;4918854;29;20079;-85
2022/09/22 12:10:51;;;;;;;8.02;4.15;;;19.20;99.90;;;;;;4919071;29;20051;-87
2022/09/22 12:13:23;;;;;;;6.13;3.65;;;19.20;99.70;;;;;;4918937;29;20493;-86
2022/09/22 15:05:32;;;;;;;8.18;5.35;;;18.40;99.90;;;;;;5964977;23;20401;-82
2022/09/22 15:08:00;;;;;;;7.53;4.57;;;18.30;99.90;;;;;;4918883;29;20107;-82
2022/09/22 15:10:29;;;;;;;7.30;4.82;;;18.30;99.90;;;;;;4919018;29;20131;-82
2022/09/22 15:13:17;;;;;;;10.10;5.63;;;18.20;99.90;;;;;;4919195;29;20407;-85
2022/09/22 15:15:47;;;;;;;9.75;5.05;;;18.10;99.90;;;;;;4918923;29;20078;-86
2022/09/22 15:18:18;;;;;;;8.02;5.50;;;18.00;99.90;;;;;;4919214;29;20130;-88
2022/09/22 15:20:57;;;;;;;8.13;5.40;;;18.00;99.90;;;;;;4919150;29;20056;-86
2022/09/22 15:23:28;;;;;;;9.30;5.18;;;18.00;99.90;;;;;;4918989;29;20048;-84
2022/09/22 15:26:03;;;;;;;8.68;5.15;;;17.90;99.90;;;;;;4919054;29;20056;-86
2022/09/22 15:28:30;;;;;;;8.20;5.28;;;17.80;99.90;;;;;;4918883;29;20492;-85
2022/09/22 15:30:59;;;;;;;6.35;5.60;;;17.70;99.90;;;;;;4919078;29;20130;-87
2022/09/22 15:33:26;;;;;;;8.63;4.65;;;17.80;99.90;;;;;;4935845;29;20062;-87
2022/09/22 15:35:55;;;;;;;7.60;5.50;;;17.70;99.90;;;;;;4919077;29;20051;-88
2022/09/22 15:38:26;;;;;;;7.13;5.28;;;17.50;99.90;;;;;;4919060;29;20138;-88
2022/09/22 15:40:52;;;;;;;7.18;5.13;;;17.50;99.90;;;;;;4918832;29;20043;-88
2022/09/22 15:43:20;;;;;;;6.90;4.70;;;17.40;99.90;;;;;;4918811;29;20499;-88
2022/09/22 15:45:52;;;;;;;7.32;4.65;;;17.40;99.90;;;;;;4918613;29;20126;-87
2022/09/22 15:48:33;;;;;;;5.20;4.28;;;17.30;99.90;;;;;;4918800;29;20427;-89
2022/09/22 15:51:03;;;;;;;6.22;4.38;;;17.20;99.90;;;;;;4918935;29;20052;-91
2022/09/22 15:53:29;;;;;;;8.70;4.55;;;17.00;99.90;;;;;;4918924;29;20146;-90
2022/09/22 15:55:57;;;;;;;6.38;3.83;;;17.00;99.90;;;;;;4918929;29;20107;-90
2022/09/22 15:58:23;;;;;;;6.30;4.07;;;16.90;99.90;;;;;;4918989;29;20047;-91
2022/09/22 16:00:51;;;;;;;7.53;4.05;;;16.80;99.90;;;;;;4935950;29;20043;-91
2022/09/22 16:03:22;;;;;;;7.32;3.85;;;16.80;99.90;;;;;;4919621;29;20047;-90
2022/09/22 16:05:58;;;;;;;8.50;4.00;;;16.80;99.90;;;;;;4938986;29;20155;-90
2022/09/22 16:08:50;;;;;;;5.53;3.60;;;16.80;99.90;;;;;;4939339;29;20043;-90
2022/09/22 16:11:28;;;;;;;5.85;3.28;;;16.70;99.90;;;;;;4936180;29;20087;-90
2022/09/22 16:14:02;;;;;;;6.10;3.30;;;16.70;99.90;;;;;;4921911;29;20056;-90
2022/09/22 16:16:32;;;;;;;6.57;3.50;;;16.70;99.90;;;;;;4921981;29;20052;-90
2022/09/22 16:18:59;;;;;;;8.73;3.70;;;16.60;99.90;;;;;;4922121;29;20048;-90
2022/09/22 16:21:31;;;;;;;5.93;3.55;;;16.60;99.90;;;;;;4921634;29;20529;-90